APL Thailand — WCX8882 — position and weather

sailwx.info

Track history (hours):
 
Tides and Currents Weather Stations Pressure Air Temp Water Temp Dewpoint Dewpoint Depression Visibility Wind Speed Wind Dir Waves Ship Positions

APL Thailand

Owner: APL Maritime, Ltd, Rockville, MD. More information available from US FCC via Universal Licensing System and Coast Guard Vessel Documentation Center.

Last reported at 2018-Feb-25 06:00 UTC. Time now 2018-Feb-25 09:48 UTC.
Position N 32°42' E 133°36'.

Length 276.3 m; beam 40 m; draft 14 m.

Type: Cargo ship. MMSI: 368686000.

Wind from 120 at 12 knots

Barometer 1021.0 mb
Air temperature 14.0 ° C
Visibility: greater than 10.8 NM
Dewpoint 8.0 ° C
Water temperature 15.0 ° C

Date/timePositionNaut miles runAvg speedWind from/ knotsBaromVisibWave heightAir tempDewpointWater temp
2018-Feb-25 06:00N 32°42' E 133°36'7813.0 120 / 121021.010.8 14.0 8.015.0
2018-Feb-25 00:00N 32°00' E 134°54'   180 / 31024.010.8 15.013.220.0
2018-Feb-20 23:12N 31°06' E 122°19'2 9.9
2018-Feb-20 23:00N 31°07' E 122°17'813.2
2018-Feb-20 22:22N 31°12' E 122°09'410.1
2018-Feb-20 22:00N 31°14' E 122°05'612.7
2018-Feb-20 21:30N 31°15' E 121°58'5 9.5
2018-Feb-20 21:00N 31°16' E 121°53'610.8
2018-Feb-20 20:29N 31°18' E 121°47'1 0.1
2018-Feb-20 05:08N 31°18' E 121°45'211.8
2018-Feb-20 04:59N 31°18' E 121°47'510.6
2018-Feb-20 04:30N 31°16' E 121°53'611.3
2018-Feb-20 04:00N 31°15' E 121°59'913.3
2018-Feb-20 03:22N 31°12' E 122°09'4 9.7
2018-Feb-20 03:00N 31°10' E 122°12'610.7
2018-Feb-20 02:29N 31°07' E 122°17'611.7
2018-Feb-20 02:00N 31°06' E 122°24'611.7
2018-Feb-20 01:30N 31°07' E 122°31'510.7
2018-Feb-20 01:01N 31°07' E 122°37'5 8.8
2018-Feb-20 00:26N 31°08' E 122°43'  
Track history (hours):
 
Tides and Currents Weather Stations Pressure Air Temp Water Temp Dewpoint Dewpoint Depression Visibility Wind Speed Wind Dir Waves Ship Positions

APL Thailand

Owner: APL Maritime, Ltd, Rockville, MD. More information available from US FCC via Universal Licensing System and Coast Guard Vessel Documentation Center.

Last reported at 2018-Feb-25 06:00 UTC. Time now 2018-Feb-25 09:48 UTC.
Position N 32°42' E 133°36'.

Length 276.3 m; beam 40 m; draft 14 m.

Type: Cargo ship. MMSI: 368686000.

Wind from 120 at 12 knots

Barometer 1021.0 mb
Air temperature 14.0 ° C
Visibility: greater than 10.8 NM
Dewpoint 8.0 ° C
Water temperature 15.0 ° C

Date/timePositionNaut miles runAvg speedWind from/ knotsBaromVisibWave heightAir tempDewpointWater temp
2018-Feb-25 06:00N 32°42' E 133°36'7813.0 120 / 121021.010.8 14.0 8.015.0
2018-Feb-25 00:00N 32°00' E 134°54'   180 / 31024.010.8 15.013.220.0
2018-Feb-20 23:12N 31°06' E 122°19'2 9.9
2018-Feb-20 23:00N 31°07' E 122°17'813.2
2018-Feb-20 22:22N 31°12' E 122°09'410.1
2018-Feb-20 22:00N 31°14' E 122°05'612.7
2018-Feb-20 21:30N 31°15' E 121°58'5 9.5
2018-Feb-20 21:00N 31°16' E 121°53'610.8
2018-Feb-20 20:29N 31°18' E 121°47'1 0.1
2018-Feb-20 05:08N 31°18' E 121°45'211.8
2018-Feb-20 04:59N 31°18' E 121°47'510.6
2018-Feb-20 04:30N 31°16' E 121°53'611.3
2018-Feb-20 04:00N 31°15' E 121°59'913.3
2018-Feb-20 03:22N 31°12' E 122°09'4 9.7
2018-Feb-20 03:00N 31°10' E 122°12'610.7
2018-Feb-20 02:29N 31°07' E 122°17'611.7
2018-Feb-20 02:00N 31°06' E 122°24'611.7
2018-Feb-20 01:30N 31°07' E 122°31'510.7
2018-Feb-20 01:01N 31°07' E 122°37'5 8.8
2018-Feb-20 00:26N 31°08' E 122°43'  

Dump ship's entire track history